Olbia, Italy

6:10 PM CEST on October 25, 2014 (GMT +0200)
Olbia | Change Station
CLOSE
Current Station
Personal Weather Station
Location: Olbia, OT
Elevation: 20 ft
Nearby Weather Stations

Elev 20 ft 40.88 °N, 9.63 °E | Updated 8 minutes ago

Clear
Clear
67.6 °F
Feels Like 67.6 °F
N
2.0
Wind Variable Wind from SE
Gusts 8.0 mph

Today
High -- | Low -- °F
--% Chance of Precip.
Yesterday
High -- | Low -- °F
Precip. -- in
7:44 AM 6:27 PM
Waxing Crescent, 3% visible
Pressure 30.04 in
Visibility 6.2 miles
Clouds
Dew Point 55 °F
Humidity 65%
Rainfall 0.00 in
Snow Depth Not available.
UV Not available.
Pollen Not available.
Air Quality Not available.
Flu Activity Not available.
METAR LFKF 251600Z AUTO 07005KT 020V100 9999 NCD 21/14 Q1017

More Conditions Fewer Conditions

Pressure 30.04 in
Visibility 6.2 miles
Clouds
Dew Point 55 °F
Humidity 65%
Rainfall 0.00 in
Snow Depth Not available.
UV Not available.
Pollen Not available.
Air Quality Not available.
Flu Activity Not available.
METAR LFKF 251600Z AUTO 07005KT 020V100 9999 NCD 21/14 Q1017

More Conditions Fewer Conditions

10-Day Weather Forecast

Almanac

Astronomy

Oct. 25, 2014 Rise Set
Actual Time 7:44 AM CEST 6:27 PM CEST
Civil Twilight 7:16 AM CEST 6:55 PM CEST
Nautical Twilight 6:43 AM CEST 7:27 PM CEST
Astronomical Twilight 6:12 AM CEST 7:59 PM CEST
Moon 9:06 AM CEST 7:37 PM CEST
Length of Visible Light 11h 39m
Length of Day
10h 43m
Tomorrow will be 2m 30s shorter.
Waxing Crescent, 3% of the Moon is Illuminated
Today
Waxing Crescent
Oct 30
First Quarter
Nov 6
Full
Nov 14
Last Quarter
Nov 22
New

Today's Extremes

Country Highs Country Lows

Community

WunderPhotos

Upload Photos

1,764,887 photos uploaded!

Nearby

Snow Depth

Not available.

Earthquake Activity

City Distance Mag. Time & Date
No recent earthquake activity has been reported nearby.
Minimum magnitude displayed is 2.5.

Coastal Water Temperatures

Place Temperature
No Stations Reporting

Nearby Weather Stations